Terminal Aerodrome Forecast
Issued by NWS

Home | Current Version | Previous Version | Text Only | Print | Product List | Glossary On
Versions: 1 2 3 4 5 6 7 8 9 10 11 12 13 14 15 16 17 18 19
000
FTUS43 KGRB 251120
TAFMTW
TAF
KMTW 251120Z 2512/2612 34011G17KT P6SM SKC
     FM251700 01010G16KT P6SM SKC
     FM252000 05008KT P6SM SKC
     FM252200 13004KT P6SM SKC
     FM260400 23003KT P6SM SKC=

USA.gov is the U.S. government's official web portal to all federal, state and local government web resources and services.